Flight Track Log - Related Links

Times and Time Zones

All times are in EDT time to prevent confusion due to time zone crossing. See the ASQ5941 flight status page for this flight to view local times or setup timezone preferences in your user account.

Time Position Orientation Groundspeed Altitude Reporting Facility
EDT Latitude Longitude Course Direction KTS MPH feet Rate Location/Type
Thu 05:04:27 PM 41.4178 -75.6842 16° North 177 204 4,200  Level New York Center
Thu 05:05:28 PM 41.4742 -75.7297 329° Northwest 184 212 5,700 1,736 Climbing New York Center
Thu 05:06:00 PM 41.4373 -75.9579 304° West  Level FlightAware Approximate
Thu 05:06:28 PM 41.5344 -75.7786 329° Northwest 216 249 7,700  Level New York Center
Thu 05:07:00 PM 41.4902 -76.0480 315° West  Level FlightAware Approximate
Thu 05:07:27 PM 41.5753 -75.8483 308° West 250 288 9,500  Level New York Center
Thu 05:08:00 PM 41.5490 -76.1319 312° West  Level FlightAware Approximate
Thu 05:08:29 PM 41.6067 -75.9422 294° West 271 312 10,800  Level New York Center
Thu 05:09:29 PM 41.6428 -76.0700 291° West 314 361 11,500 864 Climbing New York Center
Thu 05:10:27 PM 41.6747 -76.1892 290° West 337 388 12,500 1,068 Climbing New York Center
Thu 05:11:27 PM 41.7072 -76.3000 291° West 356 410 13,600 1,091 Climbing New York Center
Thu 05:12:28 PM 41.7411 -76.4225 290° West 356 410 14,700 1,150 Climbing New York Center
Thu 05:13:27 PM 41.7803 -76.5592 291° West 356 410 15,900 1,160 Climbing New York Center
Thu 05:14:27 PM 41.8103 -76.6703 290° West 356 410 17,000 1,082 Climbing New York Center
Thu 05:15:29 PM 41.8433 -76.7958 290° West 356 410 18,100 1,098 Climbing New York Center
Thu 05:17:00 PM 41.8997 -76.9897 291° West 364 419 19,800 1,113 Climbing Cleveland Center
Thu 05:18:00 PM 41.9325 -77.1136 290° West 364 419 20,900 1,100 Climbing Cleveland Center
Thu 05:19:00 PM 41.9656 -77.2375 290° West 364 419 22,000 1,100 Climbing Cleveland Center
Thu 05:20:00 PM 41.9983 -77.3614 290° West 364 419 23,100 1,100 Climbing Cleveland Center
Thu 05:21:00 PM 42.0331 -77.4883 290° West 364 419 24,200 1,150 Climbing Cleveland Center
Thu 05:22:00 PM 42.0656 -77.6156 289° West 364 419 25,400 1,100 Climbing Cleveland Center
Thu 05:23:00 PM 42.1000 -77.7369 291° West 359 413 26,400 950 Climbing Cleveland Center
Thu 05:24:00 PM 42.1322 -77.8644 289° West 359 413 27,300 950 Climbing Cleveland Center
Thu 05:25:00 PM 42.1642 -77.9892 289° West 359 413 28,300 950 Climbing Cleveland Center
Thu 05:26:00 PM 42.1961 -78.1139 289° West 359 413 29,200 850 Climbing Cleveland Center
Thu 05:27:00 PM 42.2300 -78.2361 291° West 359 413 30,000 400 Climbing Cleveland Center
Thu 05:28:00 PM 42.2639 -78.3694 289° West 359 413 30,000 50 Level Cleveland Center
Thu 05:29:00 PM 42.2997 -78.5086 289° West 378 435 30,100 550 Climbing Cleveland Center
Thu 05:30:00 PM 42.3336 -78.6481 288° West 384 442 31,100 1,050 Climbing Cleveland Center
Thu 05:31:00 PM 42.3714 -78.7928 290° West 384 442 32,200 1,150 Climbing Cleveland Center
Thu 05:32:00 PM 42.4044 -78.9269 288° West 384 442 33,400 1,150 Climbing Cleveland Center
Thu 05:33:00 PM 42.4375 -79.0556 289° West 379 436 34,500 1,050 Climbing Cleveland Center
Thu 05:34:00 PM 42.4683 -79.1786 289° West 368 423 35,500 750 Climbing Cleveland Center
Thu 05:35:00 PM 42.4928 -79.3047 285° West 355 409 36,000 250 Climbing Cleveland Center
Thu 05:36:00 PM 42.5003 -79.4342 275° West 355 409 36,000  Level Cleveland Center
Thu 05:37:00 PM 42.5058 -79.5692 273° West 355 409 36,000  Level Cleveland Center
Thu 05:38:00 PM 42.5153 -79.7072 275° West 355 409 36,000  Level Cleveland Center
Thu 05:39:00 PM 42.5225 -79.8536 274° West 368 423 36,000  Level Cleveland Center
Thu 05:40:00 PM 42.5275 -79.9719 273° West 387 445 36,000  Level Cleveland Center
Thu 05:41:00 PM 42.5303 -80.1353 271° West 395 455 36,000  Level Cleveland Center
Thu 05:42:00 PM 42.5389 -80.2844 275° West 401 461 36,000  Level Cleveland Center
Thu 05:43:00 PM 42.5436 -80.4339 273° West 401 461 36,000  Level Cleveland Center
Thu 05:44:00 PM 42.5478 -80.5831 272° West 406 467 36,000  Level Cleveland Center
Thu 05:45:00 PM 42.5561 -80.7325 274° West 401 461 36,000  Level Cleveland Center
Thu 05:46:00 PM 42.5619 -80.8792 273° West 401 461 36,000  Level Cleveland Center
Thu 05:47:00 PM 42.5656 -81.0369 272° West 394 453 36,000  Level Cleveland Center
Thu 05:48:00 PM 42.5711 -81.1864 273° West 394 453 36,000  Level Cleveland Center
Thu 05:49:00 PM 42.5767 -81.3275 273° West 381 438 36,000  Level Cleveland Center
Thu 05:50:00 PM 42.5858 -81.4742 275° West 386 444 36,000  Level Cleveland Center
Thu 05:51:00 PM 42.6139 -81.6186 285° West 391 450 36,000  Level Cleveland Center
Thu 05:52:00 PM 42.6394 -81.7714 283° West 403 464 36,000  Level Cleveland Center
Thu 05:53:00 PM 42.6631 -81.9072 283° West 410 472 36,000  Level Cleveland Center
Thu 05:54:00 PM 42.6903 -82.0606 284° West 421 484 36,000  Level Cleveland Center
Thu 05:55:00 PM 42.7192 -82.2419 282° West 433 498 36,000  Level Cleveland Center
Thu 05:56:00 PM 42.7481 -82.4011 284° West 433 498 36,000  Level Cleveland Center
Thu 05:57:00 PM 42.7661 -82.5658 279° West 433 498 36,000  Level Cleveland Center
Thu 05:58:00 PM 42.7778 -82.7272 276° West 433 498 36,000  Level Cleveland Center
Thu 05:59:00 PM 42.7894 -82.8889 276° West 433 498 36,000  Level Cleveland Center
Thu 06:00:00 PM 42.7983 -83.0533 274° West 433 498 36,000  Level Cleveland Center
Thu 06:01:00 PM 42.8075 -83.2122 275° West 433 498 36,000  Level Cleveland Center
Thu 06:02:00 PM 42.8181 -83.3769 275° West 428 493 36,000  Level Cleveland Center
Thu 06:03:00 PM 42.8286 -83.5389 275° West 428 493 36,000  Level Cleveland Center
Thu 06:04:00 PM 42.8369 -83.7036 274° West 433 498 36,000  Level Cleveland Center
Thu 06:05:00 PM 42.8447 -83.8708 274° West 440 506 36,000  Level Cleveland Center
Thu 06:06:00 PM 42.8544 -84.0358 275° West 446 513 36,000  Level Cleveland Center
Thu 06:07:00 PM 42.8619 -84.2033 274° West 446 513 36,000  Level Cleveland Center
Thu 06:08:00 PM 42.8719 -84.3483 275° West 440 506 36,000  Level Cleveland Center
Thu 06:08:46 PM 42.8792 -84.4769 274° West 445 512 36,000 -275 Level Chicago Center
Thu 06:09:49 PM 42.8803 -84.6447 271° West 448 516 35,500 -1,440 Descending Chicago Center
Thu 06:10:51 PM 42.8572 -84.8439 261° West 445 512 33,000 -1,694 Descending Chicago Center
Thu 06:11:53 PM 42.8403 -85.0161 262° West 454 522 32,000 -484 Descending Chicago Center
Thu 06:12:55 PM 42.8200 -85.1883 261° West 459 528 32,000  Level Chicago Center
Thu 06:13:57 PM 42.8017 -85.3603 262° West 459 528 32,000 -339 Level Chicago Center
Thu 06:14:59 PM 42.7800 -85.5375 261° West 468 539 31,300 -1,645 Descending Chicago Center
Thu 06:16:01 PM 42.7478 -85.7128 256° West 474 545 28,600 -2,710 Descending Chicago Center
Thu 06:17:03 PM 42.7156 -85.8867 256° West 470 541 25,700 -3,097 Descending Chicago Center
Thu 06:18:05 PM 42.6778 -86.0975 256° West 475 547 22,200 -2,710 Descending Chicago Center
Thu 06:19:07 PM 42.6478 -86.2611 256° West 451 519 20,100 -1,056 Descending Chicago Center
Thu 06:20:10 PM 42.6189 -86.4147 256° West 426 490 20,000 -480 Descending Chicago Center
Thu 06:21:12 PM 42.5833 -86.5697 253° West 428 493 19,100 -1,839 Descending Chicago Center
Thu 06:22:14 PM 42.5453 -86.7231 251° West 429 494 16,200 -2,710 Descending Chicago Center
Thu 06:23:16 PM 42.5114 -86.8692 253° West 416 479 13,500 -2,565 Descending Chicago Center
Thu 06:24:18 PM 42.4772 -87.0014 251° West 383 441 10,900 -1,694 Descending Chicago Center
Thu 06:25:20 PM 42.4383 -87.1578 251° West 362 417 10,000 -435 Descending Chicago Center
Thu 06:26:22 PM 42.4056 -87.2819 250° West 360 414 10,000  Level Chicago Center
Thu 06:27:24 PM 42.3728 -87.4106 251° West 360 414 10,000 -581 Level Chicago Center
Thu 06:29:28 PM 42.2775 -87.5994 236° Southwest 306 352 8,200 -968 Descending Chicago Center
Thu 06:30:30 PM 42.2011 -87.6800 218° Southwest 296 341 7,000 -576 Descending Chicago Center
Thu 06:31:33 PM 42.1367 -87.7472 218° Southwest 294 338 7,000  Level Chicago Center
Thu 06:32:34 PM 42.0908 -87.8328 234° Southwest 289 333 7,000  Level Chicago Center
Thu 06:33:31 PM 42.1000 -87.9500 276° West 281 323 7,000  Level Chicago TRACON
Thu 06:34:31 PM 42.1000 -88.0333 270° West 244 281 7,000 -400 Level Chicago TRACON
Thu 06:35:31 PM 42.0833 -88.1333 257° West 236 272 6,200 -1,100 Descending Chicago TRACON
Thu 06:36:31 PM 42.0833 -88.2167 270° West 225 259 4,800 -985 Descending Chicago TRACON
Thu 06:37:45 PM 42.0308 -88.2286 190° South 205 236 4,000 -309 Descending Chicago Center
Thu 06:38:47 PM 41.9853 -88.2039 158° South 193 222 4,100 -290 Climbing Chicago Center
Thu 06:39:49 PM 41.9678 -88.1192 105° East 198 228 3,400 -808 Descending Chicago Center
Thu 06:40:31 PM 41.9667 -88.0667 92° East 176 203 2,700 -1,000 Descending Chicago TRACON

Login

Don't have an account? Register now (free) for customized features, flight alerts, and more!